Current Weather

Qaisumah

Qaisumah, Saudi Arabia (OEPA)

Report from: Tuesday, July 16, 2024 5:00 PM +03
Current time: Tuesday, July 16, 2024 5:53 PM +03

Nearby weather – Weather history – Daily summaries
Weather forecast

Temperature43.0°C (109.4°F)
Heat index39.8°C (103.6°F)
Dew point3.0°C (37.4°F)
Winds 11 kts (5.7 m/s, 12.7 mph) North-Northwest (330°)
Clouds Sky clear
Altimeter29.56 in.Hg (1001 mB)
Relative humidity9 %
Density altitude3,652 ft. (1,113 m)
Remarks Ceiling and visibility OK
No significant changes expected in the next two hours
Flight conditions Visual Meteorological Conditions
Raw dataOEPA 161400Z 33011KT CAVOK 43/03 Q1001 NOSIG
An error has occurred. This application may no longer respond until reloaded. Reload 🗙